sensor_id;sensor_type;location;lat;lon;timestamp;P1;durP1;ratioP1;P2;durP2;ratioP2
25962;SDS011;13760;52.588;13.406;2023-05-10T00:01:04;11.70;;;6.00;;
25962;SDS011;13760;52.588;13.406;2023-05-10T00:03:29;6.95;;;5.35;;
25962;SDS011;13760;52.588;13.406;2023-05-10T00:05:55;8.30;;;5.40;;
25962;SDS011;13760;52.588;13.406;2023-05-10T00:08:21;7.00;;;5.18;;
25962;SDS011;13760;52.588;13.406;2023-05-10T00:10:47;11.45;;;5.63;;
25962;SDS011;13760;52.588;13.406;2023-05-10T00:13:12;8.45;;;5.78;;
25962;SDS011;13760;52.588;13.406;2023-05-10T00:15:38;7.43;;;5.47;;
25962;SDS011;13760;52.588;13.406;2023-05-10T00:18:03;9.57;;;5.53;;
25962;SDS011;13760;52.588;13.406;2023-05-10T00:20:29;7.90;;;5.32;;
25962;SDS011;13760;52.588;13.406;2023-05-10T00:22:54;10.10;;;5.97;;
25962;SDS011;13760;52.588;13.406;2023-05-10T00:25:20;7.88;;;5.57;;
25962;SDS011;13760;52.588;13.406;2023-05-10T00:27:46;7.35;;;5.80;;
25962;SDS011;13760;52.588;13.406;2023-05-10T00:30:12;6.43;;;5.05;;
25962;SDS011;13760;52.588;13.406;2023-05-10T00:32:38;8.20;;;5.65;;
25962;SDS011;13760;52.588;13.406;2023-05-10T00:35:04;8.02;;;5.00;;
25962;SDS011;13760;52.588;13.406;2023-05-10T00:37:29;6.95;;;5.47;;
25962;SDS011;13760;52.588;13.406;2023-05-10T00:39:55;7.97;;;5.35;;
25962;SDS011;13760;52.588;13.406;2023-05-10T00:42:20;9.07;;;5.80;;
25962;SDS011;13760;52.588;13.406;2023-05-10T00:44:47;7.55;;;5.60;;
25962;SDS011;13760;52.588;13.406;2023-05-10T00:47:12;9.60;;;5.82;;
25962;SDS011;13760;52.588;13.406;2023-05-10T00:49:38;12.57;;;6.35;;
25962;SDS011;13760;52.588;13.406;2023-05-10T00:52:04;8.10;;;5.75;;
25962;SDS011;13760;52.588;13.406;2023-05-10T00:54:29;7.43;;;6.00;;
25962;SDS011;13760;52.588;13.406;2023-05-10T00:56:55;8.75;;;5.78;;
25962;SDS011;13760;52.588;13.406;2023-05-10T00:59:21;7.35;;;6.00;;
25962;SDS011;13760;52.588;13.406;2023-05-10T01:01:47;7.30;;;5.90;;
25962;SDS011;13760;52.588;13.406;2023-05-10T01:04:13;8.18;;;5.68;;
25962;SDS011;13760;52.588;13.406;2023-05-10T01:06:39;9.98;;;6.43;;
25962;SDS011;13760;52.588;13.406;2023-05-10T01:09:06;7.60;;;5.63;;
25962;SDS011;13760;52.588;13.406;2023-05-10T01:11:35;7.90;;;6.30;;
25962;SDS011;13760;52.588;13.406;2023-05-10T01:14:01;9.77;;;6.43;;
25962;SDS011;13760;52.588;13.406;2023-05-10T01:16:27;7.65;;;6.15;;
25962;SDS011;13760;52.588;13.406;2023-05-10T01:18:57;8.57;;;5.95;;
25962;SDS011;13760;52.588;13.406;2023-05-10T01:24:14;8.25;;;5.85;;
25962;SDS011;13760;52.588;13.406;2023-05-10T01:29:13;10.23;;;6.03;;
25962;SDS011;13760;52.588;13.406;2023-05-10T01:34:34;8.35;;;6.30;;
25962;SDS011;13760;52.588;13.406;2023-05-10T01:37:07;11.10;;;6.38;;
25962;SDS011;13760;52.588;13.406;2023-05-10T01:39:45;8.68;;;5.75;;
25962;SDS011;13760;52.588;13.406;2023-05-10T01:42:17;9.15;;;6.05;;
25962;SDS011;13760;52.588;13.406;2023-05-10T01:44:55;10.17;;;6.30;;
25962;SDS011;13760;52.588;13.406;2023-05-10T01:47:37;10.80;;;5.80;;
25962;SDS011;13760;52.588;13.406;2023-05-10T01:50:08;9.45;;;6.43;;
25962;SDS011;13760;52.588;13.406;2023-05-10T01:52:41;9.60;;;5.80;;
25962;SDS011;13760;52.588;13.406;2023-05-10T01:55:11;10.50;;;5.72;;
25962;SDS011;13760;52.588;13.406;2023-05-10T01:57:40;10.77;;;6.47;;
25962;SDS011;13760;52.588;13.406;2023-05-10T02:00:08;12.02;;;6.15;;
25962;SDS011;13760;52.588;13.406;2023-05-10T02:02:40;10.70;;;6.70;;
25962;SDS011;13760;52.588;13.406;2023-05-10T02:05:08;12.57;;;6.03;;
25962;SDS011;13760;52.588;13.406;2023-05-10T02:07:36;7.88;;;5.45;;
25962;SDS011;13760;52.588;13.406;2023-05-10T02:10:03;11.85;;;6.25;;
25962;SDS011;13760;52.588;13.406;2023-05-10T02:12:30;10.20;;;6.25;;
25962;SDS011;13760;52.588;13.406;2023-05-10T02:14:59;9.82;;;6.35;;
25962;SDS011;13760;52.588;13.406;2023-05-10T02:17:29;11.23;;;6.10;;
25962;SDS011;13760;52.588;13.406;2023-05-10T02:19:56;9.50;;;6.90;;
25962;SDS011;13760;52.588;13.406;2023-05-10T02:22:23;9.27;;;5.90;;
25962;SDS011;13760;52.588;13.406;2023-05-10T02:24:50;13.30;;;6.30;;
25962;SDS011;13760;52.588;13.406;2023-05-10T02:27:16;9.65;;;6.38;;
25962;SDS011;13760;52.588;13.406;2023-05-10T02:29:43;11.07;;;6.30;;
25962;SDS011;13760;52.588;13.406;2023-05-10T02:32:10;12.00;;;5.93;;
25962;SDS011;13760;52.588;13.406;2023-05-10T02:34:36;9.35;;;5.78;;
25962;SDS011;13760;52.588;13.406;2023-05-10T02:37:03;13.27;;;6.15;;
25962;SDS011;13760;52.588;13.406;2023-05-10T02:39:30;11.55;;;6.63;;
25962;SDS011;13760;52.588;13.406;2023-05-10T02:41:57;11.20;;;5.47;;
25962;SDS011;13760;52.588;13.406;2023-05-10T02:44:24;8.60;;;5.30;;
25962;SDS011;13760;52.588;13.406;2023-05-10T02:46:53;9.60;;;5.50;;
25962;SDS011;13760;52.588;13.406;2023-05-10T02:49:20;9.00;;;5.50;;
25962;SDS011;13760;52.588;13.406;2023-05-10T02:51:47;7.97;;;5.40;;
25962;SDS011;13760;52.588;13.406;2023-05-10T02:54:20;8.75;;;6.03;;
25962;SDS011;13760;52.588;13.406;2023-05-10T02:56:58;10.23;;;5.90;;
25962;SDS011;13760;52.588;13.406;2023-05-10T02:59:28;9.85;;;5.72;;
25962;SDS011;13760;52.588;13.406;2023-05-10T03:01:54;8.35;;;5.55;;
25962;SDS011;13760;52.588;13.406;2023-05-10T03:04:19;7.63;;;5.40;;
25962;SDS011;13760;52.588;13.406;2023-05-10T03:06:45;11.40;;;5.93;;
25962;SDS011;13760;52.588;13.406;2023-05-10T03:09:11;11.32;;;5.65;;
25962;SDS011;13760;52.588;13.406;2023-05-10T03:11:46;10.60;;;5.60;;
25962;SDS011;13760;52.588;13.406;2023-05-10T03:14:25;7.65;;;4.85;;
25962;SDS011;13760;52.588;13.406;2023-05-10T03:22:21;6.65;;;5.15;;
25962;SDS011;13760;52.588;13.406;2023-05-10T03:24:51;8.68;;;5.13;;
25962;SDS011;13760;52.588;13.406;2023-05-10T03:27:20;11.50;;;5.50;;
25962;SDS011;13760;52.588;13.406;2023-05-10T03:29:47;9.80;;;5.78;;
25962;SDS011;13760;52.588;13.406;2023-05-10T03:32:13;10.65;;;5.18;;
25962;SDS011;13760;52.588;13.406;2023-05-10T03:34:42;12.02;;;5.30;;
25962;SDS011;13760;52.588;13.406;2023-05-10T03:37:10;8.25;;;5.15;;
25962;SDS011;13760;52.588;13.406;2023-05-10T03:39:36;9.75;;;5.47;;
25962;SDS011;13760;52.588;13.406;2023-05-10T03:42:01;9.77;;;5.43;;
25962;SDS011;13760;52.588;13.406;2023-05-10T03:44:27;13.15;;;5.60;;
25962;SDS011;13760;52.588;13.406;2023-05-10T03:46:53;11.13;;;5.97;;
25962;SDS011;13760;52.588;13.406;2023-05-10T03:49:18;9.13;;;5.28;;
25962;SDS011;13760;52.588;13.406;2023-05-10T03:51:45;6.85;;;4.90;;
25962;SDS011;13760;52.588;13.406;2023-05-10T03:54:10;8.07;;;5.47;;
25962;SDS011;13760;52.588;13.406;2023-05-10T03:56:36;9.57;;;5.53;;
25962;SDS011;13760;52.588;13.406;2023-05-10T03:59:01;7.78;;;5.72;;
25962;SDS011;13760;52.588;13.406;2023-05-10T04:01:32;9.20;;;5.25;;
25962;SDS011;13760;52.588;13.406;2023-05-10T04:03:58;7.80;;;5.10;;
25962;SDS011;13760;52.588;13.406;2023-05-10T04:06:23;9.77;;;5.68;;
25962;SDS011;13760;52.588;13.406;2023-05-10T04:08:49;10.13;;;5.47;;
25962;SDS011;13760;52.588;13.406;2023-05-10T04:11:14;11.38;;;5.78;;
25962;SDS011;13760;52.588;13.406;2023-05-10T04:13:40;7.90;;;5.38;;
25962;SDS011;13760;52.588;13.406;2023-05-10T04:16:06;10.27;;;5.47;;
25962;SDS011;13760;52.588;13.406;2023-05-10T04:18:31;11.90;;;5.93;;
25962;SDS011;13760;52.588;13.406;2023-05-10T04:20:57;7.97;;;5.32;;
25962;SDS011;13760;52.588;13.406;2023-05-10T04:23:23;11.50;;;5.88;;
25962;SDS011;13760;52.588;13.406;2023-05-10T04:25:49;8.80;;;5.63;;
25962;SDS011;13760;52.588;13.406;2023-05-10T04:28:18;13.25;;;5.97;;
25962;SDS011;13760;52.588;13.406;2023-05-10T04:30:44;9.50;;;5.93;;
25962;SDS011;13760;52.588;13.406;2023-05-10T04:33:10;8.60;;;5.47;;
25962;SDS011;13760;52.588;13.406;2023-05-10T04:35:36;10.05;;;5.00;;
25962;SDS011;13760;52.588;13.406;2023-05-10T04:38:01;14.80;;;5.80;;
25962;SDS011;13760;52.588;13.406;2023-05-10T04:40:27;9.60;;;5.05;;
25962;SDS011;13760;52.588;13.406;2023-05-10T04:42:52;9.90;;;5.65;;
25962;SDS011;13760;52.588;13.406;2023-05-10T04:45:18;9.20;;;5.40;;
25962;SDS011;13760;52.588;13.406;2023-05-10T04:47:43;14.27;;;5.60;;
25962;SDS011;13760;52.588;13.406;2023-05-10T04:50:09;10.63;;;5.75;;
25962;SDS011;13760;52.588;13.406;2023-05-10T04:52:35;7.95;;;5.50;;
25962;SDS011;13760;52.588;13.406;2023-05-10T04:55:01;9.75;;;5.18;;
25962;SDS011;13760;52.588;13.406;2023-05-10T04:57:26;11.73;;;4.78;;
25962;SDS011;13760;52.588;13.406;2023-05-10T04:59:52;9.07;;;5.25;;
25962;SDS011;13760;52.588;13.406;2023-05-10T05:02:17;12.32;;;5.30;;
25962;SDS011;13760;52.588;13.406;2023-05-10T05:04:43;14.32;;;5.35;;
25962;SDS011;13760;52.588;13.406;2023-05-10T05:07:08;9.10;;;4.70;;
25962;SDS011;13760;52.588;13.406;2023-05-10T05:09:34;11.00;;;5.13;;
25962;SDS011;13760;52.588;13.406;2023-05-10T05:12:00;9.25;;;4.72;;
25962;SDS011;13760;52.588;13.406;2023-05-10T05:14:25;8.98;;;4.85;;
25962;SDS011;13760;52.588;13.406;2023-05-10T05:16:51;6.93;;;4.68;;
25962;SDS011;13760;52.588;13.406;2023-05-10T05:19:17;8.85;;;5.22;;
25962;SDS011;13760;52.588;13.406;2023-05-10T05:21:43;6.85;;;4.50;;
25962;SDS011;13760;52.588;13.406;2023-05-10T05:24:08;7.32;;;4.20;;
25962;SDS011;13760;52.588;13.406;2023-05-10T05:26:35;9.30;;;4.38;;
25962;SDS011;13760;52.588;13.406;2023-05-10T05:29:01;7.43;;;4.40;;
25962;SDS011;13760;52.588;13.406;2023-05-10T05:31:27;8.57;;;4.40;;
25962;SDS011;13760;52.588;13.406;2023-05-10T05:33:52;7.07;;;4.30;;
25962;SDS011;13760;52.588;13.406;2023-05-10T05:36:18;8.80;;;4.63;;
25962;SDS011;13760;52.588;13.406;2023-05-10T05:38:43;8.52;;;4.30;;
25962;SDS011;13760;52.588;13.406;2023-05-10T05:41:09;5.35;;;3.67;;
25962;SDS011;13760;52.588;13.406;2023-05-10T05:43:34;10.20;;;4.32;;
25962;SDS011;13760;52.588;13.406;2023-05-10T05:46:00;9.95;;;4.07;;
25962;SDS011;13760;52.588;13.406;2023-05-10T05:48:25;5.85;;;4.00;;
25962;SDS011;13760;52.588;13.406;2023-05-10T05:50:54;9.88;;;4.15;;
25962;SDS011;13760;52.588;13.406;2023-05-10T05:53:21;5.95;;;3.80;;
25962;SDS011;13760;52.588;13.406;2023-05-10T05:55:56;10.35;;;3.85;;
25962;SDS011;13760;52.588;13.406;2023-05-10T05:58:23;10.95;;;3.88;;
25962;SDS011;13760;52.588;13.406;2023-05-10T06:00:50;7.38;;;4.03;;
25962;SDS011;13760;52.588;13.406;2023-05-10T06:03:17;6.68;;;3.55;;
25962;SDS011;13760;52.588;13.406;2023-05-10T06:05:43;12.88;;;3.75;;
25962;SDS011;13760;52.588;13.406;2023-05-10T06:08:08;7.35;;;3.72;;
25962;SDS011;13760;52.588;13.406;2023-05-10T06:10:34;5.40;;;3.70;;
25962;SDS011;13760;52.588;13.406;2023-05-10T06:13:00;6.88;;;3.30;;
25962;SDS011;13760;52.588;13.406;2023-05-10T06:15:26;9.40;;;3.42;;
25962;SDS011;13760;52.588;13.406;2023-05-10T06:17:52;7.13;;;3.47;;
25962;SDS011;13760;52.588;13.406;2023-05-10T06:20:17;7.32;;;3.15;;
25962;SDS011;13760;52.588;13.406;2023-05-10T06:22:43;6.97;;;3.45;;
25962;SDS011;13760;52.588;13.406;2023-05-10T06:25:09;6.18;;;3.33;;
25962;SDS011;13760;52.588;13.406;2023-05-10T06:27:35;4.63;;;3.08;;
25962;SDS011;13760;52.588;13.406;2023-05-10T06:30:00;5.35;;;3.30;;
25962;SDS011;13760;52.588;13.406;2023-05-10T06:32:27;6.82;;;2.95;;
25962;SDS011;13760;52.588;13.406;2023-05-10T06:34:53;5.07;;;3.53;;
25962;SDS011;13760;52.588;13.406;2023-05-10T06:37:18;5.45;;;3.20;;
25962;SDS011;13760;52.588;13.406;2023-05-10T06:39:45;4.32;;;3.05;;
25962;SDS011;13760;52.588;13.406;2023-05-10T06:42:10;7.35;;;3.28;;
25962;SDS011;13760;52.588;13.406;2023-05-10T06:44:36;4.45;;;2.65;;
25962;SDS011;13760;52.588;13.406;2023-05-10T06:47:01;5.43;;;3.10;;
25962;SDS011;13760;52.588;13.406;2023-05-10T06:49:27;7.53;;;2.90;;
25962;SDS011;13760;52.588;13.406;2023-05-10T06:51:53;6.47;;;3.10;;
25962;SDS011;13760;52.588;13.406;2023-05-10T06:54:20;9.13;;;3.75;;
25962;SDS011;13760;52.588;13.406;2023-05-10T06:56:46;7.18;;;2.85;;
25962;SDS011;13760;52.588;13.406;2023-05-10T06:59:11;4.93;;;3.00;;
25962;SDS011;13760;52.588;13.406;2023-05-10T07:01:38;9.05;;;3.10;;
25962;SDS011;13760;52.588;13.406;2023-05-10T07:04:04;5.28;;;2.78;;
25962;SDS011;13760;52.588;13.406;2023-05-10T07:06:29;7.38;;;3.00;;
25962;SDS011;13760;52.588;13.406;2023-05-10T07:08:55;6.78;;;2.70;;
25962;SDS011;13760;52.588;13.406;2023-05-10T07:11:20;6.78;;;2.80;;
25962;SDS011;13760;52.588;13.406;2023-05-10T07:13:46;6.32;;;3.00;;
25962;SDS011;13760;52.588;13.406;2023-05-10T07:16:11;3.72;;;2.75;;
25962;SDS011;13760;52.588;13.406;2023-05-10T07:18:37;4.97;;;3.03;;
25962;SDS011;13760;52.588;13.406;2023-05-10T07:21:02;3.03;;;2.28;;
25962;SDS011;13760;52.588;13.406;2023-05-10T07:23:28;7.13;;;3.25;;
25962;SDS011;13760;52.588;13.406;2023-05-10T07:25:54;4.82;;;3.03;;
25962;SDS011;13760;52.588;13.406;2023-05-10T07:28:22;5.88;;;2.90;;
25962;SDS011;13760;52.588;13.406;2023-05-10T07:30:47;4.45;;;3.13;;
25962;SDS011;13760;52.588;13.406;2023-05-10T07:33:13;6.15;;;2.90;;
25962;SDS011;13760;52.588;13.406;2023-05-10T07:35:40;7.03;;;2.60;;
25962;SDS011;13760;52.588;13.406;2023-05-10T07:38:06;3.85;;;2.50;;
25962;SDS011;13760;52.588;13.406;2023-05-10T07:40:32;3.95;;;2.65;;
25962;SDS011;13760;52.588;13.406;2023-05-10T07:42:58;5.43;;;2.58;;
25962;SDS011;13760;52.588;13.406;2023-05-10T07:45:24;6.25;;;2.78;;
25962;SDS011;13760;52.588;13.406;2023-05-10T07:47:50;6.07;;;2.92;;
25962;SDS011;13760;52.588;13.406;2023-05-10T07:50:15;5.30;;;2.80;;
25962;SDS011;13760;52.588;13.406;2023-05-10T07:52:41;4.22;;;2.60;;
25962;SDS011;13760;52.588;13.406;2023-05-10T07:55:07;7.57;;;2.72;;
25962;SDS011;13760;52.588;13.406;2023-05-10T07:57:33;4.45;;;2.75;;
25962;SDS011;13760;52.588;13.406;2023-05-10T07:59:59;8.77;;;2.88;;
25962;SDS011;13760;52.588;13.406;2023-05-10T08:02:25;7.63;;;2.90;;
25962;SDS011;13760;52.588;13.406;2023-05-10T08:04:50;7.32;;;3.03;;
25962;SDS011;13760;52.588;13.406;2023-05-10T08:07:16;7.70;;;2.97;;
25962;SDS011;13760;52.588;13.406;2023-05-10T08:09:42;7.72;;;2.50;;
25962;SDS011;13760;52.588;13.406;2023-05-10T08:12:07;5.90;;;2.80;;
25962;SDS011;13760;52.588;13.406;2023-05-10T08:14:33;6.25;;;2.90;;
25962;SDS011;13760;52.588;13.406;2023-05-10T08:16:58;4.38;;;2.58;;
25962;SDS011;13760;52.588;13.406;2023-05-10T08:19:24;6.10;;;3.00;;
25962;SDS011;13760;52.588;13.406;2023-05-10T08:21:50;4.82;;;2.55;;
25962;SDS011;13760;52.588;13.406;2023-05-10T08:24:15;5.20;;;2.55;;
25962;SDS011;13760;52.588;13.406;2023-05-10T08:26:41;4.47;;;2.65;;
25962;SDS011;13760;52.588;13.406;2023-05-10T08:29:07;6.78;;;3.13;;
25962;SDS011;13760;52.588;13.406;2023-05-10T08:31:32;5.65;;;2.63;;
25962;SDS011;13760;52.588;13.406;2023-05-10T08:33:58;4.88;;;2.80;;
25962;SDS011;13760;52.588;13.406;2023-05-10T08:36:23;9.60;;;2.25;;
25962;SDS011;13760;52.588;13.406;2023-05-10T08:38:52;5.72;;;2.58;;
25962;SDS011;13760;52.588;13.406;2023-05-10T08:41:21;5.78;;;2.53;;
25962;SDS011;13760;52.588;13.406;2023-05-10T08:43:52;4.18;;;2.58;;
25962;SDS011;13760;52.588;13.406;2023-05-10T08:46:19;5.20;;;2.72;;
25962;SDS011;13760;52.588;13.406;2023-05-10T08:48:46;7.05;;;2.83;;
25962;SDS011;13760;52.588;13.406;2023-05-10T08:51:13;7.28;;;3.00;;
25962;SDS011;13760;52.588;13.406;2023-05-10T08:53:42;4.05;;;2.40;;
25962;SDS011;13760;52.588;13.406;2023-05-10T08:56:09;6.70;;;2.65;;
25962;SDS011;13760;52.588;13.406;2023-05-10T08:58:35;4.05;;;2.70;;
25962;SDS011;13760;52.588;13.406;2023-05-10T09:01:01;6.90;;;2.80;;
25962;SDS011;13760;52.588;13.406;2023-05-10T09:03:28;4.03;;;2.50;;
25962;SDS011;13760;52.588;13.406;2023-05-10T09:05:54;4.63;;;2.55;;
25962;SDS011;13760;52.588;13.406;2023-05-10T09:08:23;5.97;;;2.80;;
25962;SDS011;13760;52.588;13.406;2023-05-10T09:10:50;3.08;;;2.42;;
25962;SDS011;13760;52.588;13.406;2023-05-10T09:13:17;4.88;;;3.00;;
25962;SDS011;13760;52.588;13.406;2023-05-10T09:15:43;5.75;;;2.78;;
25962;SDS011;13760;52.588;13.406;2023-05-10T09:18:10;7.45;;;2.50;;
25962;SDS011;13760;52.588;13.406;2023-05-10T09:20:36;4.55;;;2.38;;
25962;SDS011;13760;52.588;13.406;2023-05-10T09:23:02;4.28;;;2.47;;
25962;SDS011;13760;52.588;13.406;2023-05-10T09:25:27;4.80;;;2.70;;
25962;SDS011;13760;52.588;13.406;2023-05-10T09:27:53;3.55;;;2.47;;
25962;SDS011;13760;52.588;13.406;2023-05-10T09:30:23;5.60;;;2.50;;
25962;SDS011;13760;52.588;13.406;2023-05-10T09:32:55;5.95;;;2.70;;
25962;SDS011;13760;52.588;13.406;2023-05-10T09:35:23;6.47;;;2.53;;
25962;SDS011;13760;52.588;13.406;2023-05-10T09:37:51;5.35;;;2.70;;
25962;SDS011;13760;52.588;13.406;2023-05-10T09:40:25;3.65;;;2.72;;
25962;SDS011;13760;52.588;13.406;2023-05-10T09:43:01;7.00;;;2.30;;
25962;SDS011;13760;52.588;13.406;2023-05-10T09:45:35;5.55;;;2.78;;
25962;SDS011;13760;52.588;13.406;2023-05-10T09:48:02;5.38;;;2.50;;
25962;SDS011;13760;52.588;13.406;2023-05-10T09:50:28;4.10;;;2.63;;
25962;SDS011;13760;52.588;13.406;2023-05-10T09:52:55;7.43;;;2.70;;
25962;SDS011;13760;52.588;13.406;2023-05-10T09:55:24;5.05;;;2.80;;
25962;SDS011;13760;52.588;13.406;2023-05-10T09:58:02;6.18;;;3.00;;
25962;SDS011;13760;52.588;13.406;2023-05-10T10:00:33;6.03;;;3.03;;
25962;SDS011;13760;52.588;13.406;2023-05-10T10:03:03;3.75;;;2.60;;
25962;SDS011;13760;52.588;13.406;2023-05-10T10:05:29;5.68;;;2.38;;
25962;SDS011;13760;52.588;13.406;2023-05-10T10:07:56;5.68;;;2.53;;
25962;SDS011;13760;52.588;13.406;2023-05-10T10:10:23;5.78;;;2.47;;
25962;SDS011;13760;52.588;13.406;2023-05-10T10:12:50;9.02;;;2.70;;
25962;SDS011;13760;52.588;13.406;2023-05-10T10:15:16;6.75;;;2.78;;
25962;SDS011;13760;52.588;13.406;2023-05-10T10:17:42;4.93;;;2.53;;
25962;SDS011;13760;52.588;13.406;2023-05-10T10:20:08;4.13;;;2.13;;
25962;SDS011;13760;52.588;13.406;2023-05-10T10:22:36;3.45;;;2.45;;
25962;SDS011;13760;52.588;13.406;2023-05-10T10:25:02;4.43;;;2.80;;
25962;SDS011;13760;52.588;13.406;2023-05-10T10:36:05;5.75;;;2.35;;
25962;SDS011;13760;52.588;13.406;2023-05-10T10:38:37;3.25;;;2.40;;
25962;SDS011;13760;52.588;13.406;2023-05-10T10:41:31;5.60;;;2.63;;
25962;SDS011;13760;52.588;13.406;2023-05-10T10:49:33;3.28;;;2.15;;
25962;SDS011;13760;52.588;13.406;2023-05-10T10:55:02;5.65;;;2.30;;
25962;SDS011;13760;52.588;13.406;2023-05-10T10:57:30;4.65;;;3.78;;
25962;SDS011;13760;52.588;13.406;2023-05-10T11:02:58;2.97;;;2.22;;
25962;SDS011;13760;52.588;13.406;2023-05-10T11:07:51;3.30;;;2.30;;
25962;SDS011;13760;52.588;13.406;2023-05-10T11:10:24;4.15;;;2.28;;
25962;SDS011;13760;52.588;13.406;2023-05-10T11:13:09;4.65;;;2.40;;
25962;SDS011;13760;52.588;13.406;2023-05-10T11:15:38;3.22;;;2.20;;
25962;SDS011;13760;52.588;13.406;2023-05-10T11:20:42;4.45;;;2.38;;
25962;SDS011;13760;52.588;13.406;2023-05-10T11:23:11;9.32;;;2.78;;
25962;SDS011;13760;52.588;13.406;2023-05-10T11:25:40;4.85;;;2.47;;
25962;SDS011;13760;52.588;13.406;2023-05-10T11:28:07;5.28;;;2.55;;
25962;SDS011;13760;52.588;13.406;2023-05-10T11:30:32;7.53;;;2.30;;
25962;SDS011;13760;52.588;13.406;2023-05-10T11:32:58;5.07;;;2.70;;
25962;SDS011;13760;52.588;13.406;2023-05-10T11:35:23;3.97;;;2.40;;
25962;SDS011;13760;52.588;13.406;2023-05-10T11:37:52;3.85;;;2.25;;
25962;SDS011;13760;52.588;13.406;2023-05-10T11:40:17;5.63;;;2.47;;
25962;SDS011;13760;52.588;13.406;2023-05-10T11:42:44;4.72;;;2.45;;
25962;SDS011;13760;52.588;13.406;2023-05-10T11:45:10;6.38;;;2.80;;
25962;SDS011;13760;52.588;13.406;2023-05-10T11:47:36;3.35;;;2.33;;
25962;SDS011;13760;52.588;13.406;2023-05-10T11:50:02;3.92;;;2.33;;
25962;SDS011;13760;52.588;13.406;2023-05-10T11:52:27;7.15;;;2.10;;
25962;SDS011;13760;52.588;13.406;2023-05-10T11:54:54;5.45;;;2.35;;
25962;SDS011;13760;52.588;13.406;2023-05-10T11:57:20;7.18;;;2.50;;
25962;SDS011;13760;52.588;13.406;2023-05-10T11:59:53;6.00;;;2.22;;
25962;SDS011;13760;52.588;13.406;2023-05-10T12:02:22;5.90;;;2.58;;
25962;SDS011;13760;52.588;13.406;2023-05-10T12:04:48;6.05;;;2.47;;
25962;SDS011;13760;52.588;13.406;2023-05-10T12:07:14;4.50;;;2.35;;
25962;SDS011;13760;52.588;13.406;2023-05-10T12:09:43;8.38;;;2.30;;
25962;SDS011;13760;52.588;13.406;2023-05-10T12:12:10;5.40;;;2.60;;
25962;SDS011;13760;52.588;13.406;2023-05-10T12:17:06;11.68;;;2.55;;
25962;SDS011;13760;52.588;13.406;2023-05-10T12:19:36;6.40;;;2.50;;
25962;SDS011;13760;52.588;13.406;2023-05-10T12:22:04;5.00;;;2.38;;
25962;SDS011;13760;52.588;13.406;2023-05-10T12:24:30;8.60;;;2.60;;
25962;SDS011;13760;52.588;13.406;2023-05-10T12:26:58;7.85;;;2.10;;
25962;SDS011;13760;52.588;13.406;2023-05-10T12:29:23;7.63;;;2.08;;
25962;SDS011;13760;52.588;13.406;2023-05-10T12:34:25;9.20;;;2.30;;
25962;SDS011;13760;52.588;13.406;2023-05-10T12:36:55;6.15;;;2.05;;
25962;SDS011;13760;52.588;13.406;2023-05-10T12:39:21;6.43;;;2.05;;
25962;SDS011;13760;52.588;13.406;2023-05-10T12:41:47;8.07;;;2.13;;
25962;SDS011;13760;52.588;13.406;2023-05-10T12:44:12;6.22;;;2.10;;
25962;SDS011;13760;52.588;13.406;2023-05-10T12:46:38;4.68;;;2.20;;
25962;SDS011;13760;52.588;13.406;2023-05-10T12:49:03;2.53;;;2.10;;
25962;SDS011;13760;52.588;13.406;2023-05-10T12:51:29;8.68;;;2.20;;
25962;SDS011;13760;52.588;13.406;2023-05-10T12:53:55;6.80;;;2.40;;
25962;SDS011;13760;52.588;13.406;2023-05-10T12:56:21;10.63;;;2.55;;
25962;SDS011;13760;52.588;13.406;2023-05-10T12:58:46;6.95;;;1.92;;
25962;SDS011;13760;52.588;13.406;2023-05-10T13:01:13;5.18;;;2.08;;
25962;SDS011;13760;52.588;13.406;2023-05-10T13:03:39;3.63;;;1.90;;
25962;SDS011;13760;52.588;13.406;2023-05-10T13:06:05;6.00;;;2.47;;
25962;SDS011;13760;52.588;13.406;2023-05-10T13:08:31;8.95;;;1.90;;
25962;SDS011;13760;52.588;13.406;2023-05-10T13:10:58;5.47;;;2.40;;
25962;SDS011;13760;52.588;13.406;2023-05-10T13:13:25;4.55;;;1.95;;
25962;SDS011;13760;52.588;13.406;2023-05-10T13:15:52;6.82;;;2.05;;
25962;SDS011;13760;52.588;13.406;2023-05-10T13:18:19;5.22;;;1.80;;
25962;SDS011;13760;52.588;13.406;2023-05-10T13:20:45;4.78;;;2.20;;
25962;SDS011;13760;52.588;13.406;2023-05-10T13:23:10;3.15;;;1.90;;
25962;SDS011;13760;52.588;13.406;2023-05-10T13:25:36;3.95;;;2.00;;
25962;SDS011;13760;52.588;13.406;2023-05-10T13:28:02;5.43;;;2.00;;
25962;SDS011;13760;52.588;13.406;2023-05-10T13:30:28;10.35;;;2.25;;
25962;SDS011;13760;52.588;13.406;2023-05-10T13:32:53;5.82;;;2.30;;
25962;SDS011;13760;52.588;13.406;2023-05-10T13:35:19;4.55;;;2.13;;
25962;SDS011;13760;52.588;13.406;2023-05-10T13:37:45;5.93;;;2.20;;
25962;SDS011;13760;52.588;13.406;2023-05-10T13:40:10;5.68;;;2.05;;
25962;SDS011;13760;52.588;13.406;2023-05-10T13:42:36;6.40;;;1.95;;
25962;SDS011;13760;52.588;13.406;2023-05-10T13:45:02;7.40;;;2.00;;
25962;SDS011;13760;52.588;13.406;2023-05-10T13:47:28;5.63;;;2.03;;
25962;SDS011;13760;52.588;13.406;2023-05-10T13:49:53;8.38;;;2.25;;
25962;SDS011;13760;52.588;13.406;2023-05-10T13:52:19;5.50;;;2.00;;
25962;SDS011;13760;52.588;13.406;2023-05-10T13:54:45;7.90;;;1.85;;
25962;SDS011;13760;52.588;13.406;2023-05-10T13:57:10;3.28;;;2.10;;
25962;SDS011;13760;52.588;13.406;2023-05-10T13:59:38;11.00;;;2.03;;
25962;SDS011;13760;52.588;13.406;2023-05-10T14:02:04;6.10;;;2.50;;
25962;SDS011;13760;52.588;13.406;2023-05-10T14:04:30;5.00;;;2.05;;
25962;SDS011;13760;52.588;13.406;2023-05-10T14:06:55;3.05;;;1.85;;
25962;SDS011;13760;52.588;13.406;2023-05-10T14:09:21;3.92;;;2.13;;
25962;SDS011;13760;52.588;13.406;2023-05-10T14:11:46;5.88;;;2.00;;
25962;SDS011;13760;52.588;13.406;2023-05-10T14:14:12;8.57;;;2.30;;
25962;SDS011;13760;52.588;13.406;2023-05-10T14:16:38;2.28;;;1.90;;
25962;SDS011;13760;52.588;13.406;2023-05-10T14:19:08;2.83;;;2.10;;
25962;SDS011;13760;52.588;13.406;2023-05-10T14:21:34;2.83;;;2.25;;
25962;SDS011;13760;52.588;13.406;2023-05-10T14:24:00;3.92;;;2.10;;
25962;SDS011;13760;52.588;13.406;2023-05-10T14:26:26;6.80;;;2.20;;
25962;SDS011;13760;52.588;13.406;2023-05-10T14:28:52;4.50;;;2.00;;
25962;SDS011;13760;52.588;13.406;2023-05-10T14:31:17;5.57;;;2.15;;
25962;SDS011;13760;52.588;13.406;2023-05-10T14:33:48;4.60;;;2.00;;
25962;SDS011;13760;52.588;13.406;2023-05-10T14:36:13;3.80;;;1.80;;
25962;SDS011;13760;52.588;13.406;2023-05-10T14:38:39;4.90;;;1.63;;
25962;SDS011;13760;52.588;13.406;2023-05-10T14:41:05;4.07;;;2.13;;
25962;SDS011;13760;52.588;13.406;2023-05-10T14:43:31;4.28;;;2.30;;
25962;SDS011;13760;52.588;13.406;2023-05-10T14:45:56;9.63;;;2.00;;
25962;SDS011;13760;52.588;13.406;2023-05-10T14:48:25;2.35;;;2.00;;
25962;SDS011;13760;52.588;13.406;2023-05-10T14:50:50;7.03;;;2.10;;
25962;SDS011;13760;52.588;13.406;2023-05-10T14:53:17;5.32;;;2.40;;
25962;SDS011;13760;52.588;13.406;2023-05-10T14:55:43;4.65;;;2.20;;
25962;SDS011;13760;52.588;13.406;2023-05-10T14:58:08;3.42;;;1.92;;
25962;SDS011;13760;52.588;13.406;2023-05-10T15:00:34;3.33;;;2.10;;
25962;SDS011;13760;52.588;13.406;2023-05-10T15:02:59;6.75;;;2.20;;
25962;SDS011;13760;52.588;13.406;2023-05-10T15:05:26;2.83;;;1.83;;
25962;SDS011;13760;52.588;13.406;2023-05-10T15:07:52;5.30;;;2.08;;
25962;SDS011;13760;52.588;13.406;2023-05-10T15:10:17;3.80;;;1.80;;
25962;SDS011;13760;52.588;13.406;2023-05-10T15:12:43;5.82;;;2.20;;
25962;SDS011;13760;52.588;13.406;2023-05-10T15:15:08;8.38;;;2.10;;